Time;durP1;ratioP1;P1;durP2;ratioP2;P2;SDS_P1;SDS_P2;PMS_P1;PMS_P2;Temp;Humidity;BMP_temperature;BMP_pressure;BME280_temperature;BME280_humidity;BME280_pressure;Samples;Min_cycle;Max_cycle;Signal;HPM_P1;HPM_P2
2022/03/24 00:01:26;;;;;;;;;;;24.30;45.50;;;;;;4997315;28;962;-41
2022/03/24 00:03:52;;;;;;;;;;;24.20;45.40;;;;;;4996722;28;1910;-40
2022/03/24 00:06:19;;;;;;;;;;;24.20;45.10;;;;;;4996810;28;1010;-40
2022/03/24 00:08:46;;;;;;;;;;;24.20;45.10;;;;;;4996586;28;994;-41
2022/03/24 00:11:13;;;;;;;;;;;24.20;45.10;;;;;;4997984;28;1049;-40
2022/03/24 00:13:41;;;;;;;;;;;24.20;45.10;;;;;;4996945;28;1158;-41
2022/03/24 00:16:08;;;;;;;;;;;24.20;45.10;;;;;;4996096;28;993;-41
2022/03/24 00:18:35;;;;;;;;;;;24.20;45.00;;;;;;4995943;28;1037;-41
2022/03/24 00:21:02;;;;;;;;;;;24.20;45.00;;;;;;4996540;28;1037;-40
2022/03/24 00:23:29;;;;;;;;;;;24.20;45.00;;;;;;4996092;28;1979;-41
2022/03/24 00:25:56;;;;;;;;;;;24.30;45.00;;;;;;4996667;28;981;-40
2022/03/24 00:28:22;;;;;;;;;;;24.20;45.00;;;;;;4996428;28;947;-41
2022/03/24 00:30:51;;;;;;;;;;;24.20;45.10;;;;;;4995858;28;1030;-40
2022/03/24 00:33:18;;;;;;;;;;;24.20;45.10;;;;;;4996336;28;1009;-41
2022/03/24 00:35:44;;;;;;;;;;;24.20;45.10;;;;;;4996610;28;949;-40
2022/03/24 00:38:11;;;;;;;;;;;24.20;45.10;;;;;;4997078;28;938;-41
2022/03/24 00:40:39;;;;;;;;;;;24.20;45.10;;;;;;4995759;28;1380;-41
2022/03/24 00:43:05;;;;;;;;;;;24.20;45.10;;;;;;4996488;28;1013;-41
2022/03/24 00:45:32;;;;;;;;;;;24.20;45.20;;;;;;4996270;28;1910;-41
2022/03/24 00:48:00;;;;;;;;;;;24.20;45.30;;;;;;4995805;28;994;-41
2022/03/24 00:50:27;;;;;;;;;;;24.20;45.30;;;;;;4996846;28;1756;-40
2022/03/24 00:52:54;;;;;;;;;;;24.10;45.30;;;;;;4996128;28;930;-40
2022/03/24 00:55:21;;;;;;;;;;;24.10;45.40;;;;;;4997225;28;1009;-41
2022/03/24 00:57:49;;;;;;;;;;;24.10;45.40;;;;;;4996496;28;931;-40
2022/03/24 01:00:17;;;;;;;;;;;24.10;45.40;;;;;;4996785;28;1161;-40
2022/03/24 01:02:44;;;;;;;;;;;24.10;45.40;;;;;;4996686;28;985;-41
2022/03/24 01:05:13;;;;;;;;;;;24.10;45.50;;;;;;4995726;28;1898;-41
2022/03/24 01:07:40;;;;;;;;;;;24.00;45.40;;;;;;4996151;28;965;-40
2022/03/24 01:10:07;;;;;;;;;;;24.00;45.40;;;;;;4996222;28;923;-39
2022/03/24 01:12:35;;;;;;;;;;;24.00;45.50;;;;;;4998840;28;1005;-39
2022/03/24 01:15:04;;;;;;;;;;;24.00;45.50;;;;;;4999430;28;1010;-41
2022/03/24 01:17:31;;;;;;;;;;;24.00;45.40;;;;;;4998915;28;1025;-41
2022/03/24 01:19:58;;;;;;;;;;;24.00;45.50;;;;;;4999769;28;907;-41
2022/03/24 01:22:26;;;;;;;;;;;24.00;45.50;;;;;;4999321;28;1228;-41
2022/03/24 01:24:53;;;;;;;;;;;24.00;45.50;;;;;;4998952;28;1906;-41
2022/03/24 01:27:20;;;;;;;;;;;24.00;45.60;;;;;;4999480;28;888;-41
2022/03/24 01:29:47;;;;;;;;;;;24.00;45.50;;;;;;4999738;28;986;-41
2022/03/24 01:32:13;;;;;;;;;;;24.00;45.50;;;;;;5000036;28;1025;-40
2022/03/24 01:34:40;;;;;;;;;;;24.00;45.50;;;;;;5000212;28;1005;-40
2022/03/24 01:37:07;;;;;;;;;;;24.00;45.50;;;;;;4999756;28;1790;-41
2022/03/24 01:39:35;;;;;;;;;;;23.90;45.50;;;;;;4999470;28;978;-40
2022/03/24 01:42:02;;;;;;;;;;;24.00;45.60;;;;;;4998959;28;1042;-41
2022/03/24 01:44:28;;;;;;;;;;;24.00;45.50;;;;;;4999154;28;1977;-40
2022/03/24 01:46:56;;;;;;;;;;;24.00;45.50;;;;;;4998916;28;898;-40
2022/03/24 01:49:24;;;;;;;;;;;24.00;45.50;;;;;;5000575;28;989;-40
2022/03/24 01:51:50;;;;;;;;;;;24.00;45.50;;;;;;5000712;28;947;-41
2022/03/24 01:54:18;;;;;;;;;;;24.00;45.50;;;;;;4999868;28;981;-40
2022/03/24 01:56:46;;;;;;;;;;;24.00;45.50;;;;;;4999752;28;1093;-40
2022/03/24 01:59:14;;;;;;;;;;;23.90;45.60;;;;;;5000468;28;1032;-40
2022/03/24 02:01:41;;;;;;;;;;;24.00;45.60;;;;;;4999960;28;942;-40
2022/03/24 02:04:09;;;;;;;;;;;24.00;45.50;;;;;;4999766;28;1887;-42
2022/03/24 02:06:36;;;;;;;;;;;23.90;45.60;;;;;;5000067;28;1173;-40
2022/03/24 02:09:04;;;;;;;;;;;23.90;45.60;;;;;;5000208;28;1146;-41
2022/03/24 02:11:31;;;;;;;;;;;24.00;45.50;;;;;;4999788;28;942;-40
2022/03/24 02:13:59;;;;;;;;;;;24.00;45.60;;;;;;5000237;28;1015;-40
2022/03/24 02:16:30;;;;;;;;;;;23.90;45.60;;;;;;5000310;28;1905;-41
2022/03/24 02:18:59;;;;;;;;;;;24.00;45.60;;;;;;4999335;28;946;-41
2022/03/24 02:21:25;;;;;;;;;;;23.90;45.60;;;;;;4999275;28;994;-41
2022/03/24 02:23:53;;;;;;;;;;;23.90;45.60;;;;;;4998922;28;994;-41
2022/03/24 02:26:20;;;;;;;;;;;23.90;45.60;;;;;;4999054;28;1914;-40
2022/03/24 02:28:47;;;;;;;;;;;23.90;45.60;;;;;;4999541;28;1018;-40
2022/03/24 02:31:14;;;;;;;;;;;23.90;45.60;;;;;;4999024;28;954;-40
2022/03/24 02:33:41;;;;;;;;;;;23.90;45.60;;;;;;4998914;28;1006;-41
2022/03/24 02:36:07;;;;;;;;;;;23.90;45.60;;;;;;4998763;28;997;-41
2022/03/24 02:38:34;;;;;;;;;;;23.90;45.60;;;;;;4999174;28;970;-40
2022/03/24 02:41:02;;;;;;;;;;;23.90;45.70;;;;;;4998825;28;961;-40
2022/03/24 02:43:30;;;;;;;;;;;23.90;45.60;;;;;;4999453;28;981;-40
2022/03/24 02:45:57;;;;;;;;;;;23.90;45.70;;;;;;4998549;28;1906;-41
2022/03/24 02:48:24;;;;;;;;;;;23.90;45.70;;;;;;4998990;28;999;-41
2022/03/24 02:50:51;;;;;;;;;;;23.90;45.80;;;;;;4998971;28;1005;-41
2022/03/24 02:53:19;;;;;;;;;;;23.90;45.70;;;;;;4999255;28;1190;-41
2022/03/24 02:55:45;;;;;;;;;;;23.90;45.70;;;;;;4999026;28;962;-40
2022/03/24 02:58:13;;;;;;;;;;;23.90;45.70;;;;;;4998563;28;1255;-40
2022/03/24 03:00:40;;;;;;;;;;;23.90;45.70;;;;;;4998942;28;1872;-40
2022/03/24 03:03:10;;;;;;;;;;;23.90;45.70;;;;;;4999633;28;957;-41
2022/03/24 03:05:36;;;;;;;;;;;23.90;45.70;;;;;;4997706;28;1923;-40
2022/03/24 03:08:03;;;;;;;;;;;23.90;45.60;;;;;;4998257;28;1002;-40
2022/03/24 03:10:30;;;;;;;;;;;23.90;45.60;;;;;;4998432;28;985;-41
2022/03/24 03:12:57;;;;;;;;;;;23.90;45.60;;;;;;4998212;28;994;-41
2022/03/24 03:15:26;;;;;;;;;;;23.90;45.60;;;;;;4998368;28;997;-40
2022/03/24 03:17:52;;;;;;;;;;;23.90;45.60;;;;;;4997897;28;1181;-40
2022/03/24 03:20:19;;;;;;;;;;;23.80;45.70;;;;;;4997944;28;1005;-40
2022/03/24 03:22:46;;;;;;;;;;;23.90;45.60;;;;;;4997996;28;1974;-40
2022/03/24 03:25:13;;;;;;;;;;;23.80;45.60;;;;;;4997397;28;1978;-40
2022/03/24 03:27:40;;;;;;;;;;;23.90;45.70;;;;;;4997997;28;953;-40
2022/03/24 03:30:07;;;;;;;;;;;23.90;45.60;;;;;;4998315;28;922;-40
2022/03/24 03:32:35;;;;;;;;;;;23.90;45.60;;;;;;4997558;28;1426;-41
2022/03/24 03:35:02;;;;;;;;;;;23.90;45.70;;;;;;4997096;28;1014;-41
2022/03/24 03:37:28;;;;;;;;;;;23.80;45.60;;;;;;4997618;28;1010;-40
2022/03/24 03:39:55;;;;;;;;;;;23.90;45.70;;;;;;4997957;28;981;-41
2022/03/24 03:42:23;;;;;;;;;;;23.80;45.60;;;;;;4998179;28;1004;-40
2022/03/24 03:44:50;;;;;;;;;;;23.80;45.70;;;;;;4997600;28;1914;-41
2022/03/24 03:47:17;;;;;;;;;;;23.80;45.70;;;;;;4998389;28;918;-40
2022/03/24 03:49:45;;;;;;;;;;;23.80;45.70;;;;;;4997833;28;1126;-41
2022/03/24 03:52:12;;;;;;;;;;;23.80;45.70;;;;;;4997696;28;1046;-40
2022/03/24 03:54:39;;;;;;;;;;;23.80;45.70;;;;;;4997819;28;1731;-40
2022/03/24 03:57:05;;;;;;;;;;;23.80;45.80;;;;;;4997183;28;1193;-41
2022/03/24 04:02:45;;;;;;;;;;;23.80;45.80;;;;;;4997942;28;687;-41
2022/03/24 04:05:13;;;;;;;;;;;23.80;45.80;;;;;;4997933;28;1977;-40
2022/03/24 04:10:27;;;;;;;;;;;23.70;45.70;;;;;;4993139;28;884;-40
2022/03/24 04:12:55;;;;;;;;;;;23.80;45.80;;;;;;4997962;28;959;-41
2022/03/24 04:15:21;;;;;;;;;;;23.70;45.80;;;;;;4998127;28;1160;-41
2022/03/24 04:17:48;;;;;;;;;;;23.70;45.80;;;;;;4997507;28;919;-41
2022/03/24 04:20:20;;;;;;;;;;;23.80;45.80;;;;;;4997724;28;1009;-40
2022/03/24 04:22:48;;;;;;;;;;;23.70;45.80;;;;;;4997146;28;941;-40
2022/03/24 04:25:14;;;;;;;;;;;23.70;45.80;;;;;;4997558;28;1906;-41
2022/03/24 04:27:41;;;;;;;;;;;23.80;45.80;;;;;;4997237;28;931;-41
2022/03/24 04:30:09;;;;;;;;;;;23.70;45.70;;;;;;4997084;28;1160;-40
2022/03/24 04:32:35;;;;;;;;;;;23.70;45.80;;;;;;4997436;28;1022;-40
2022/03/24 04:35:02;;;;;;;;;;;23.70;45.70;;;;;;4997365;28;1415;-41
2022/03/24 04:37:30;;;;;;;;;;;23.70;45.70;;;;;;4996578;28;1021;-41
2022/03/24 04:39:57;;;;;;;;;;;23.70;45.70;;;;;;4996310;28;947;-41
2022/03/24 04:42:24;;;;;;;;;;;23.70;45.70;;;;;;4996069;28;954;-41
2022/03/24 04:44:51;;;;;;;;;;;23.70;45.80;;;;;;4995829;28;985;-41
2022/03/24 04:47:17;;;;;;;;;;;23.70;45.80;;;;;;5000239;28;989;-40
2022/03/24 04:49:44;;;;;;;;;;;23.70;45.80;;;;;;4999443;28;1013;-40
2022/03/24 04:52:11;;;;;;;;;;;23.70;45.90;;;;;;4999363;28;1022;-40
2022/03/24 04:54:39;;;;;;;;;;;23.70;45.90;;;;;;4999546;28;911;-40
2022/03/24 04:57:06;;;;;;;;;;;23.60;45.90;;;;;;4999029;28;1032;-40
2022/03/24 04:59:33;;;;;;;;;;;23.60;46.00;;;;;;4998682;28;1070;-41
2022/03/24 05:01:59;;;;;;;;;;;23.60;46.00;;;;;;4998160;28;1013;-40
2022/03/24 05:04:26;;;;;;;;;;;23.60;46.00;;;;;;4999032;28;985;-40
2022/03/24 05:06:53;;;;;;;;;;;23.60;46.00;;;;;;4998796;28;1981;-40
2022/03/24 05:09:20;;;;;;;;;;;23.60;46.00;;;;;;4999507;28;1005;-38
2022/03/24 05:11:48;;;;;;;;;;;23.60;46.00;;;;;;4999951;28;1005;-37
2022/03/24 05:14:15;;;;;;;;;;;23.60;46.00;;;;;;4999185;28;858;-38
2022/03/24 05:16:42;;;;;;;;;;;23.60;46.00;;;;;;4999566;28;1887;-38
2022/03/24 05:19:09;;;;;;;;;;;23.60;46.10;;;;;;4999211;28;1010;-37
2022/03/24 05:21:36;;;;;;;;;;;23.50;46.00;;;;;;4998974;28;1034;-38
2022/03/24 05:24:02;;;;;;;;;;;23.60;47.20;;;;;;4999021;28;997;-38
2022/03/24 05:26:29;;;;;;;;;;;23.50;46.00;;;;;;4998152;28;1972;-38
2022/03/24 05:28:57;;;;;;;;;;;23.50;46.00;;;;;;4998263;28;969;-37
2022/03/24 05:31:26;;;;;;;;;;;23.50;46.10;;;;;;4999035;28;942;-38
2022/03/24 05:33:52;;;;;;;;;;;23.50;46.10;;;;;;4997871;28;1010;-37
2022/03/24 05:36:19;;;;;;;;;;;23.50;46.10;;;;;;4998229;28;1032;-40
2022/03/24 05:38:46;;;;;;;;;;;23.50;46.10;;;;;;4998001;28;950;-38
2022/03/24 05:41:13;;;;;;;;;;;23.60;46.10;;;;;;4998005;28;1057;-37
2022/03/24 05:43:40;;;;;;;;;;;23.50;46.00;;;;;;4998292;28;946;-37
2022/03/24 05:46:08;;;;;;;;;;;23.50;46.00;;;;;;4998384;28;1906;-38
2022/03/24 05:48:35;;;;;;;;;;;23.50;46.00;;;;;;4997877;28;950;-38
2022/03/24 05:51:01;;;;;;;;;;;23.50;46.10;;;;;;4997401;28;1013;-38
2022/03/24 05:53:28;;;;;;;;;;;23.50;46.10;;;;;;4996382;28;935;-38
2022/03/24 05:55:55;;;;;;;;;;;23.40;46.20;;;;;;4999100;28;950;-37
2022/03/24 05:58:22;;;;;;;;;;;23.50;46.20;;;;;;4996715;28;2105;-37
2022/03/24 06:00:49;;;;;;;;;;;23.40;46.20;;;;;;4997379;28;1038;-38
2022/03/24 06:03:17;;;;;;;;;;;23.40;46.20;;;;;;4997117;28;959;-37
2022/03/24 06:05:44;;;;;;;;;;;23.40;46.30;;;;;;4996453;28;1978;-37
2022/03/24 06:08:11;;;;;;;;;;;23.40;46.30;;;;;;4997794;28;990;-37
2022/03/24 06:10:39;;;;;;;;;;;23.40;46.30;;;;;;4998215;28;1015;-38
2022/03/24 06:13:06;;;;;;;;;;;23.40;46.30;;;;;;4998213;28;971;-37
2022/03/24 06:15:33;;;;;;;;;;;23.40;46.40;;;;;;4996857;28;1022;-36
2022/03/24 06:18:00;;;;;;;;;;;23.40;46.40;;;;;;4996601;28;890;-37
2022/03/24 06:20:28;;;;;;;;;;;23.40;46.40;;;;;;4993665;28;990;-38
2022/03/24 06:22:55;;;;;;;;;;;23.40;46.40;;;;;;4989990;28;999;-39
2022/03/24 06:25:22;;;;;;;;;;;23.40;46.40;;;;;;4974904;28;987;-36
2022/03/24 06:27:49;;;;;;;;;;;23.50;46.30;;;;;;4974752;28;948;-38
2022/03/24 06:30:16;;;;;;;;;;;23.40;46.30;;;;;;4975523;28;1027;-38
2022/03/24 06:32:43;;;;;;;;;;;23.40;46.40;;;;;;4975430;28;987;-37
2022/03/24 06:35:11;;;;;;;;;;;23.40;46.40;;;;;;4975123;28;951;-38
2022/03/24 06:37:40;;;;;;;;;;;23.50;46.40;;;;;;4975353;28;954;-35
2022/03/24 06:40:09;;;;;;;;;;;23.50;46.60;;;;;;4974337;28;1013;-35
2022/03/24 06:42:35;;;;;;;;;;;23.40;46.70;;;;;;4974688;28;1568;-35
2022/03/24 06:45:03;;;;;;;;;;;23.40;46.90;;;;;;4973110;28;1730;-35
2022/03/24 06:47:30;;;;;;;;;;;23.30;47.10;;;;;;4965390;28;2195;-35
2022/03/24 06:49:57;;;;;;;;;;;23.30;47.30;;;;;;4977586;28;1012;-35
2022/03/24 06:52:24;;;;;;;;;;;23.30;47.40;;;;;;4977563;28;1002;-35
2022/03/24 06:54:52;;;;;;;;;;;23.30;47.40;;;;;;4975368;28;946;-35
2022/03/24 06:57:19;;;;;;;;;;;23.30;47.40;;;;;;4975916;28;1036;-35
2022/03/24 06:59:45;;;;;;;;;;;23.40;47.40;;;;;;4976520;28;1180;-34
2022/03/24 07:02:12;;;;;;;;;;;23.40;47.30;;;;;;4976198;28;1002;-35
2022/03/24 07:04:39;;;;;;;;;;;23.40;47.40;;;;;;4978166;28;862;-35
2022/03/24 07:07:06;;;;;;;;;;;23.40;47.30;;;;;;4977722;28;1910;-35
2022/03/24 07:09:32;;;;;;;;;;;23.40;47.20;;;;;;4974123;28;1006;-35
2022/03/24 07:12:01;;;;;;;;;;;23.50;47.30;;;;;;4975629;28;886;-36
2022/03/24 07:14:28;;;;;;;;;;;23.50;47.40;;;;;;4974872;28;943;-36
2022/03/24 07:16:54;;;;;;;;;;;23.60;46.80;;;;;;4975604;28;1163;-36
2022/03/24 07:19:21;;;;;;;;;;;23.50;47.00;;;;;;4975495;28;987;-36
2022/03/24 07:21:48;;;;;;;;;;;23.60;47.00;;;;;;4975826;28;870;-37
2022/03/24 07:24:15;;;;;;;;;;;23.60;47.00;;;;;;4975683;28;994;-36
2022/03/24 07:26:42;;;;;;;;;;;23.60;47.00;;;;;;4974573;28;1993;-36
2022/03/24 07:29:11;;;;;;;;;;;23.50;46.90;;;;;;4975014;28;963;-36
2022/03/24 07:31:38;;;;;;;;;;;23.60;46.90;;;;;;4975626;28;1007;-36
2022/03/24 07:34:06;;;;;;;;;;;23.50;46.90;;;;;;4974868;28;1013;-36
2022/03/24 07:36:32;;;;;;;;;;;23.50;46.90;;;;;;4974596;28;931;-36
2022/03/24 07:38:59;;;;;;;;;;;23.50;46.90;;;;;;4975326;28;985;-36
2022/03/24 07:41:26;;;;;;;;;;;23.50;46.90;;;;;;4975125;28;971;-36
2022/03/24 07:43:53;;;;;;;;;;;23.50;46.90;;;;;;4974692;28;1236;-36
2022/03/24 07:46:21;;;;;;;;;;;23.50;46.90;;;;;;4975061;28;1906;-36
2022/03/24 07:48:49;;;;;;;;;;;23.50;46.80;;;;;;4975198;28;954;-36
2022/03/24 07:51:16;;;;;;;;;;;23.50;46.90;;;;;;4975283;28;983;-36
2022/03/24 07:53:51;;;;;;;;;;;23.50;46.90;;;;;;4974725;28;956;-37
2022/03/24 07:56:18;;;;;;;;;;;23.50;46.80;;;;;;4975353;28;978;-36
2022/03/24 07:58:45;;;;;;;;;;;23.50;46.80;;;;;;4974119;28;1102;-36
2022/03/24 08:01:12;;;;;;;;;;;23.50;46.80;;;;;;4973789;28;999;-36
2022/03/24 08:03:40;;;;;;;;;;;23.60;46.80;;;;;;4974652;28;1045;-36
2022/03/24 08:06:07;;;;;;;;;;;23.50;46.70;;;;;;4974697;28;1911;-36
2022/03/24 08:08:33;;;;;;;;;;;23.50;46.80;;;;;;4974851;28;933;-36
2022/03/24 08:11:00;;;;;;;;;;;23.50;46.80;;;;;;4975711;28;1026;-36
2022/03/24 08:13:27;;;;;;;;;;;23.60;46.80;;;;;;4975291;28;878;-36
2022/03/24 08:15:56;;;;;;;;;;;23.50;46.70;;;;;;4975054;28;1024;-36
2022/03/24 08:18:23;;;;;;;;;;;23.60;46.80;;;;;;4974180;28;951;-36
2022/03/24 08:20:52;;;;;;;;;;;23.50;46.80;;;;;;4976942;28;1020;-37
2022/03/24 08:23:19;;;;;;;;;;;23.50;46.90;;;;;;4980787;28;1032;-37
2022/03/24 08:25:46;;;;;;;;;;;23.50;46.80;;;;;;4980219;28;918;-36
2022/03/24 08:28:13;;;;;;;;;;;23.50;46.80;;;;;;4980998;28;2003;-36
2022/03/24 08:30:40;;;;;;;;;;;23.50;46.90;;;;;;4980925;28;1174;-36
2022/03/24 08:33:09;;;;;;;;;;;23.50;46.80;;;;;;4981049;28;1132;-36
2022/03/24 08:35:36;;;;;;;;;;;23.50;46.80;;;;;;4978882;28;1029;-36
2022/03/24 08:38:04;;;;;;;;;;;23.40;46.90;;;;;;4979227;28;963;-40
2022/03/24 08:40:31;;;;;;;;;;;23.50;47.10;;;;;;4979377;28;958;-40
2022/03/24 08:42:58;;;;;;;;;;;23.50;47.00;;;;;;4979057;28;981;-40
2022/03/24 08:45:24;;;;;;;;;;;23.50;47.10;;;;;;4979837;28;944;-40
2022/03/24 08:47:51;;;;;;;;;;;23.40;47.10;;;;;;4977609;28;1906;-40
2022/03/24 08:50:18;;;;;;;;;;;23.40;47.10;;;;;;4978656;28;1033;-40
2022/03/24 08:52:45;;;;;;;;;;;23.40;47.10;;;;;;4978668;28;947;-41
2022/03/24 08:55:14;;;;;;;;;;;23.40;47.20;;;;;;4976201;28;1513;-40
2022/03/24 08:57:42;;;;;;;;;;;23.30;47.10;;;;;;4976863;28;1475;-40
2022/03/24 09:00:12;;;;;;;;;;;23.30;47.20;;;;;;4995419;28;960;-40
2022/03/24 09:02:40;;;;;;;;;;;23.30;47.10;;;;;;4996430;28;1029;-41
2022/03/24 09:05:07;;;;;;;;;;;23.30;47.10;;;;;;4996989;28;989;-40
2022/03/24 09:07:34;;;;;;;;;;;23.30;47.10;;;;;;4997264;28;1926;-40
2022/03/24 09:10:01;;;;;;;;;;;23.30;47.30;;;;;;4997406;28;974;-40
2022/03/24 09:12:29;;;;;;;;;;;23.30;47.40;;;;;;4996986;28;1018;-40
2022/03/24 09:14:55;;;;;;;;;;;23.30;47.30;;;;;;4997086;28;905;-41
2022/03/24 09:17:22;;;;;;;;;;;23.20;47.20;;;;;;4996290;28;980;-40
2022/03/24 09:19:49;;;;;;;;;;;23.20;47.30;;;;;;4996721;28;947;-40
2022/03/24 09:22:16;;;;;;;;;;;23.20;47.40;;;;;;4998582;28;934;-40
2022/03/24 09:24:42;;;;;;;;;;;23.20;47.50;;;;;;4998252;28;986;-40
2022/03/24 09:27:09;;;;;;;;;;;23.20;47.50;;;;;;4996511;28;1907;-40
2022/03/24 09:29:37;;;;;;;;;;;23.20;47.40;;;;;;4997085;28;1005;-40
2022/03/24 09:32:09;;;;;;;;;;;23.20;47.40;;;;;;4995971;28;985;-40
2022/03/24 09:34:36;;;;;;;;;;;23.20;47.40;;;;;;4997988;28;1029;-40
2022/03/24 09:37:02;;;;;;;;;;;23.20;47.40;;;;;;4996349;28;994;-40
2022/03/24 09:39:29;;;;;;;;;;;23.20;47.30;;;;;;4997056;28;1014;-40
2022/03/24 09:41:56;;;;;;;;;;;23.20;47.50;;;;;;4998063;28;998;-40
2022/03/24 09:44:24;;;;;;;;;;;23.20;47.40;;;;;;4995767;28;999;-40
2022/03/24 09:46:52;;;;;;;;;;;23.10;47.40;;;;;;4998695;28;1983;-40
2022/03/24 09:49:19;;;;;;;;;;;23.10;47.50;;;;;;4997102;28;1016;-40
2022/03/24 09:51:45;;;;;;;;;;;23.20;47.40;;;;;;4996938;28;986;-40
2022/03/24 09:54:12;;;;;;;;;;;23.10;47.40;;;;;;4997990;28;1001;-40
2022/03/24 09:56:40;;;;;;;;;;;23.20;47.50;;;;;;4997729;28;983;-41
2022/03/24 09:59:07;;;;;;;;;;;23.10;47.50;;;;;;4997766;28;1027;-40
2022/03/24 10:01:34;;;;;;;;;;;23.20;47.50;;;;;;4999039;28;966;-41
2022/03/24 10:04:06;;;;;;;;;;;23.10;47.40;;;;;;4996544;28;973;-40
2022/03/24 10:06:33;;;;;;;;;;;23.10;47.50;;;;;;4996616;28;881;-41
2022/03/24 10:09:00;;;;;;;;;;;23.10;47.50;;;;;;4997169;28;986;-41
2022/03/24 10:11:27;;;;;;;;;;;23.10;47.60;;;;;;4997435;28;1044;-41
2022/03/24 10:13:55;;;;;;;;;;;23.10;47.70;;;;;;4998379;28;1002;-40
2022/03/24 10:16:40;;;;;;;;;;;23.10;47.80;;;;;;4997350;28;931;-36
2022/03/24 10:19:09;;;;;;;;;;;23.10;47.70;;;;;;4996607;28;865;-36
2022/03/24 10:21:36;;;;;;;;;;;23.10;47.70;;;;;;4995736;28;939;-36
2022/03/24 10:24:07;;;;;;;;;;;23.10;47.70;;;;;;4995406;28;1015;-37
2022/03/24 10:26:41;;;;;;;;;;;23.10;47.60;;;;;;4996784;28;942;-36
2022/03/24 10:29:09;;;;;;;;;;;23.20;47.60;;;;;;4996021;28;1033;-36
2022/03/24 10:31:36;;;;;;;;;;;23.10;47.70;;;;;;4996220;28;990;-36
2022/03/24 10:34:03;;;;;;;;;;;23.10;47.60;;;;;;4996430;28;1212;-36
2022/03/24 10:36:33;;;;;;;;;;;23.10;47.70;;;;;;4995944;28;989;-36
2022/03/24 10:39:04;;;;;;;;;;;23.10;47.70;;;;;;4997072;28;1008;-36
2022/03/24 10:41:31;;;;;;;;;;;23.10;47.50;;;;;;4996803;28;955;-36
2022/03/24 10:43:59;;;;;;;;;;;23.20;47.60;;;;;;4996246;28;985;-36
2022/03/24 10:46:26;;;;;;;;;;;23.20;47.60;;;;;;4996569;28;940;-36
2022/03/24 10:48:54;;;;;;;;;;;23.20;47.60;;;;;;4997051;28;1980;-37
2022/03/24 10:51:24;;;;;;;;;;;23.20;47.60;;;;;;4996906;28;1061;-36
2022/03/24 10:53:54;;;;;;;;;;;23.20;47.40;;;;;;4995978;28;990;-36
2022/03/24 10:56:25;;;;;;;;;;;23.20;47.40;;;;;;4997541;28;1011;-36
2022/03/24 10:58:54;;;;;;;;;;;23.20;47.40;;;;;;4997642;28;1416;-36
2022/03/24 11:01:21;;;;;;;;;;;23.20;47.30;;;;;;4996902;28;1018;-36
2022/03/24 11:03:48;;;;;;;;;;;23.20;47.40;;;;;;4996481;28;672;-36
2022/03/24 11:06:17;;;;;;;;;;;23.20;47.40;;;;;;4996089;28;1022;-36
2022/03/24 11:08:44;;;;;;;;;;;23.20;47.30;;;;;;4994880;28;1981;-36
2022/03/24 11:11:13;;;;;;;;;;;23.20;47.40;;;;;;4993970;28;986;-37
2022/03/24 11:13:41;;;;;;;;;;;23.20;47.40;;;;;;4994363;28;970;-36
2022/03/24 11:16:09;;;;;;;;;;;23.20;47.50;;;;;;4994566;28;1010;-36
2022/03/24 11:18:36;;;;;;;;;;;23.20;47.40;;;;;;4993401;28;1006;-36
2022/03/24 11:21:04;;;;;;;;;;;23.20;47.40;;;;;;4993136;28;987;-36
2022/03/24 11:23:35;;;;;;;;;;;23.20;47.40;;;;;;4993691;28;987;-36
2022/03/24 11:26:03;;;;;;;;;;;23.20;47.40;;;;;;4994029;28;1131;-36
2022/03/24 11:28:34;;;;;;;;;;;23.20;47.30;;;;;;4994038;28;1969;-36
2022/03/24 11:31:03;;;;;;;;;;;23.20;47.50;;;;;;4994401;28;1023;-36
2022/03/24 11:33:31;;;;;;;;;;;23.20;47.40;;;;;;4993496;28;1155;-36
2022/03/24 11:35:58;;;;;;;;;;;23.20;47.60;;;;;;4995132;28;970;-36
2022/03/24 11:38:25;;;;;;;;;;;23.20;47.60;;;;;;4993948;28;969;-36
2022/03/24 11:40:51;;;;;;;;;;;23.20;47.60;;;;;;4994333;28;1042;-36
2022/03/24 11:43:20;;;;;;;;;;;23.20;47.50;;;;;;4994473;28;1001;-36
2022/03/24 11:45:54;;;;;;;;;;;23.20;47.50;;;;;;4994210;28;967;-36
2022/03/24 11:48:31;;;;;;;;;;;23.20;47.50;;;;;;4992816;28;1906;-36
2022/03/24 11:50:58;;;;;;;;;;;23.20;47.40;;;;;;4991729;28;1006;-40
2022/03/24 11:53:34;;;;;;;;;;;23.20;47.40;;;;;;4993877;28;946;-40
2022/03/24 11:56:18;;;;;;;;;;;23.20;47.50;;;;;;4992685;28;1068;-40
2022/03/24 11:59:00;;;;;;;;;;;23.20;47.60;;;;;;4993037;28;1134;-40
2022/03/24 12:01:31;;;;;;;;;;;23.20;47.70;;;;;;4975871;28;1444;-40
2022/03/24 12:04:00;;;;;;;;;;;23.20;47.60;;;;;;4993102;28;996;-40
2022/03/24 12:06:43;;;;;;;;;;;23.20;47.60;;;;;;4993159;28;946;-40
2022/03/24 12:09:10;;;;;;;;;;;23.20;47.70;;;;;;4990596;28;1906;-40
2022/03/24 12:11:39;;;;;;;;;;;23.20;47.60;;;;;;4993396;28;858;-40
2022/03/24 12:14:07;;;;;;;;;;;23.20;47.60;;;;;;4992397;28;990;-40
2022/03/24 12:16:38;;;;;;;;;;;23.20;47.50;;;;;;4993675;28;954;-40
2022/03/24 12:19:05;;;;;;;;;;;23.20;47.60;;;;;;4992718;28;995;-40
2022/03/24 12:21:32;;;;;;;;;;;23.20;47.60;;;;;;4993729;28;962;-41
2022/03/24 12:24:06;;;;;;;;;;;23.20;47.70;;;;;;4993468;28;1021;-40
2022/03/24 12:26:36;;;;;;;;;;;23.20;47.70;;;;;;4992627;28;981;-40
2022/03/24 12:29:17;;;;;;;;;;;23.20;47.60;;;;;;4993801;28;1971;-40
2022/03/24 12:32:01;;;;;;;;;;;23.20;47.60;;;;;;4992716;28;1026;-40
2022/03/24 12:34:31;;;;;;;;;;;23.30;47.80;;;;;;4994638;28;947;-40
2022/03/24 12:36:59;;;;;;;;;;;23.30;47.50;;;;;;4995298;28;953;-40
2022/03/24 12:39:33;;;;;;;;;;;23.30;47.50;;;;;;4993294;28;985;-40
2022/03/24 12:42:08;;;;;;;;;;;23.30;47.60;;;;;;4995636;28;1006;-40
2022/03/24 12:44:54;;;;;;;;;;;23.30;47.50;;;;;;4994607;28;989;-40
2022/03/24 12:47:32;;;;;;;;;;;23.30;47.70;;;;;;4994989;28;940;-40
2022/03/24 12:49:58;;;;;;;;;;;23.30;47.60;;;;;;4994903;28;946;-40
2022/03/24 12:52:27;;;;;;;;;;;23.30;47.50;;;;;;4996899;28;994;-40
2022/03/24 12:54:55;;;;;;;;;;;23.30;47.50;;;;;;4994267;28;1592;-40
2022/03/24 12:57:30;;;;;;;;;;;23.20;47.50;;;;;;4994718;28;890;-40
2022/03/24 12:59:58;;;;;;;;;;;23.30;47.40;;;;;;4995192;28;1173;-40
2022/03/24 13:02:25;;;;;;;;;;;23.30;47.50;;;;;;4993849;28;1066;-40
2022/03/24 13:04:55;;;;;;;;;;;23.30;47.40;;;;;;4994028;28;1015;-40
2022/03/24 13:07:22;;;;;;;;;;;23.30;47.50;;;;;;4996401;28;931;-40
2022/03/24 13:10:03;;;;;;;;;;;23.30;47.40;;;;;;4997474;28;1975;-40
2022/03/24 13:12:29;;;;;;;;;;;23.30;47.30;;;;;;4997270;28;950;-40
2022/03/24 13:14:57;;;;;;;;;;;23.30;47.50;;;;;;4997568;28;938;-40
2022/03/24 13:17:24;;;;;;;;;;;23.30;47.30;;;;;;4997235;28;1005;-40
2022/03/24 13:19:50;;;;;;;;;;;23.30;47.40;;;;;;4999584;28;946;-39
2022/03/24 13:22:20;;;;;;;;;;;23.30;47.30;;;;;;5000027;28;989;-40
2022/03/24 13:24:58;;;;;;;;;;;23.30;47.40;;;;;;4992500;28;1022;-40
2022/03/24 13:27:25;;;;;;;;;;;23.40;47.40;;;;;;4998602;28;906;-40
2022/03/24 13:29:52;;;;;;;;;;;23.30;47.50;;;;;;4999127;28;1976;-40
2022/03/24 13:32:21;;;;;;;;;;;23.30;47.40;;;;;;4999298;28;994;-40
2022/03/24 13:34:48;;;;;;;;;;;23.30;47.50;;;;;;5000000;28;1005;-40
2022/03/24 13:37:15;;;;;;;;;;;23.40;47.60;;;;;;4998397;28;1039;-40
2022/03/24 13:39:48;;;;;;;;;;;23.40;47.60;;;;;;4999565;28;912;-40
2022/03/24 13:42:15;;;;;;;;;;;23.30;47.50;;;;;;5000497;28;955;-40
2022/03/24 13:44:44;;;;;;;;;;;23.30;47.50;;;;;;5000404;28;998;-40
2022/03/24 13:47:11;;;;;;;;;;;23.40;47.60;;;;;;4998146;28;926;-40
2022/03/24 13:49:38;;;;;;;;;;;23.40;47.40;;;;;;4998677;28;1906;-40
2022/03/24 13:52:05;;;;;;;;;;;23.40;47.40;;;;;;5000393;28;969;-40
2022/03/24 13:54:34;;;;;;;;;;;23.40;47.40;;;;;;5000448;28;1009;-40
2022/03/24 13:57:02;;;;;;;;;;;23.40;47.40;;;;;;4999348;28;1060;-40
2022/03/24 13:59:31;;;;;;;;;;;23.50;47.40;;;;;;4996143;28;1134;-40
2022/03/24 14:01:59;;;;;;;;;;;23.50;47.30;;;;;;4996903;28;1153;-40
2022/03/24 14:04:26;;;;;;;;;;;23.50;47.40;;;;;;4996777;28;935;-40
2022/03/24 14:07:06;;;;;;;;;;;23.50;47.30;;;;;;4996370;28;1001;-40
2022/03/24 14:09:32;;;;;;;;;;;23.50;47.20;;;;;;4996703;28;1976;-40
2022/03/24 14:12:04;;;;;;;;;;;23.50;47.30;;;;;;4996257;28;927;-40
2022/03/24 14:14:31;;;;;;;;;;;23.50;47.30;;;;;;4996798;28;935;-41
2022/03/24 14:16:58;;;;;;;;;;;23.60;47.20;;;;;;4996010;28;870;-40
2022/03/24 14:19:26;;;;;;;;;;;23.60;47.20;;;;;;4995839;28;1325;-40
2022/03/24 14:21:54;;;;;;;;;;;23.60;47.20;;;;;;4996465;28;1025;-40
2022/03/24 14:24:31;;;;;;;;;;;23.60;47.20;;;;;;4998754;28;1030;-40
2022/03/24 14:26:59;;;;;;;;;;;23.60;47.20;;;;;;4997846;28;951;-40
2022/03/24 14:29:27;;;;;;;;;;;23.60;47.20;;;;;;4997046;28;1910;-40
2022/03/24 14:32:14;;;;;;;;;;;23.60;47.20;;;;;;4997956;28;978;-40
2022/03/24 14:34:41;;;;;;;;;;;23.60;47.20;;;;;;4996447;28;994;-40
2022/03/24 14:37:11;;;;;;;;;;;23.60;47.20;;;;;;4996704;28;1034;-40
2022/03/24 14:39:45;;;;;;;;;;;23.70;47.20;;;;;;4996253;28;959;-40
2022/03/24 14:42:12;;;;;;;;;;;23.70;47.20;;;;;;4997580;28;1138;-40
2022/03/24 14:44:41;;;;;;;;;;;23.70;47.20;;;;;;4996140;28;968;-40
2022/03/24 14:47:08;;;;;;;;;;;23.70;47.10;;;;;;4995759;28;997;-40